createdAt,value
2023-08-29T00:02:01.143Z,3.97
2023-08-29T00:04:30.723Z,3.72
2023-08-29T00:07:00.289Z,3.20
2023-08-29T00:09:29.846Z,4.00
2023-08-29T00:12:02.034Z,5.13
2023-08-29T00:14:31.596Z,4.82
2023-08-29T00:17:01.264Z,4.93
2023-08-29T00:19:30.821Z,3.95
2023-08-29T00:22:00.367Z,3.63
2023-08-29T00:24:31.489Z,4.50
2023-08-29T00:27:04.168Z,4.50
2023-08-29T00:29:33.725Z,5.00
2023-08-29T00:32:03.349Z,4.30
2023-08-29T00:34:32.933Z,4.28
2023-08-29T00:37:02.462Z,5.30
2023-08-29T00:39:31.982Z,6.60
2023-08-29T00:42:04.172Z,8.00
2023-08-29T00:44:33.688Z,4.30
2023-08-29T00:47:03.433Z,4.07
2023-08-29T00:49:32.969Z,5.32
2023-08-29T00:52:04.734Z,4.78
2023-08-29T00:54:34.384Z,5.13
2023-08-29T00:57:06.926Z,5.37
2023-08-29T00:59:36.701Z,4.95
2023-08-29T01:02:06.352Z,7.97
2023-08-29T01:04:35.931Z,4.60
2023-08-29T01:07:06.534Z,3.90
2023-08-29T01:09:37.125Z,8.30
2023-08-29T01:12:15.543Z,7.07
2023-08-29T01:14:52.156Z,6.30
2023-08-29T01:17:26.756Z,7.45
2023-08-29T01:19:56.759Z,5.90
2023-08-29T01:22:31.283Z,6.47
2023-08-29T01:25:04.725Z,5.03
2023-08-29T01:27:37.632Z,5.55
2023-08-29T01:30:08.135Z,4.10
2023-08-29T01:32:37.844Z,4.90
2023-08-29T01:35:09.786Z,5.15
2023-08-29T01:37:39.316Z,4.78
2023-08-29T01:40:10.589Z,5.00
2023-08-29T01:42:42.748Z,4.35
2023-08-29T01:45:13.020Z,4.55
2023-08-29T01:47:44.124Z,4.70
2023-08-29T01:50:15.512Z,4.40
2023-08-29T01:52:45.118Z,4.70
2023-08-29T01:55:14.686Z,4.70
2023-08-29T01:57:47.515Z,5.03
2023-08-29T02:00:17.950Z,5.28
2023-08-29T02:02:47.690Z,5.13
2023-08-29T02:05:17.311Z,4.40
2023-08-29T02:07:46.878Z,5.13
2023-08-29T02:10:16.488Z,4.50
2023-08-29T02:12:48.611Z,4.30
2023-08-29T02:15:18.283Z,4.03
2023-08-29T02:17:48.480Z,4.13
2023-08-29T02:20:18.251Z,5.10
2023-08-29T02:22:48.105Z,4.60
2023-08-29T02:25:17.714Z,4.80
2023-08-29T02:27:50.239Z,4.10
2023-08-29T02:30:20.113Z,4.13
2023-08-29T02:32:49.761Z,4.00
2023-08-29T02:35:19.416Z,3.90
2023-08-29T02:37:48.943Z,4.78
2023-08-29T02:40:18.718Z,5.15
2023-08-29T02:42:50.807Z,5.18
2023-08-29T02:45:20.381Z,5.00
2023-08-29T02:47:49.965Z,5.40
2023-08-29T02:50:19.862Z,6.13
2023-08-29T02:52:49.436Z,6.00
2023-08-29T02:55:19.061Z,6.18
2023-08-29T02:57:51.222Z,6.40
2023-08-29T03:00:21.744Z,5.60
2023-08-29T03:02:51.395Z,5.60
2023-08-29T03:05:21.018Z,5.15
2023-08-29T03:07:50.577Z,5.07
2023-08-29T03:10:20.948Z,5.13
2023-08-29T03:12:54.196Z,5.30
2023-08-29T03:15:24.057Z,5.43
2023-08-29T03:17:53.693Z,4.88
2023-08-29T03:20:23.796Z,5.50
2023-08-29T03:22:53.340Z,5.60
2023-08-29T03:25:23.286Z,6.00
2023-08-29T03:27:55.454Z,5.63
2023-08-29T03:30:25.026Z,5.50
2023-08-29T03:32:55.164Z,5.20
2023-08-29T03:35:24.842Z,5.40
2023-08-29T03:37:54.366Z,5.88
2023-08-29T03:40:24.095Z,6.10
2023-08-29T03:42:56.245Z,5.65
2023-08-29T03:45:25.796Z,7.77
2023-08-29T03:47:55.385Z,9.80
2023-08-29T03:50:25.054Z,5.43
2023-08-29T03:52:54.635Z,5.07
2023-08-29T03:55:24.214Z,4.90
2023-08-29T03:57:56.325Z,4.80
2023-08-29T04:00:25.939Z,5.30
2023-08-29T04:02:55.723Z,4.90
2023-08-29T04:05:26.033Z,4.40
2023-08-29T04:07:55.696Z,4.90
2023-08-29T04:10:25.320Z,4.90
2023-08-29T04:12:57.540Z,4.05
2023-08-29T04:15:27.118Z,4.47
2023-08-29T04:17:56.695Z,4.80
2023-08-29T04:20:26.318Z,5.63
2023-08-29T04:22:55.934Z,5.10
2023-08-29T04:25:27.366Z,5.28
2023-08-29T04:27:59.750Z,5.60
2023-08-29T04:30:29.356Z,5.85
2023-08-29T04:33:00.999Z,7.47
2023-08-29T04:35:30.806Z,6.30
2023-08-29T04:38:00.388Z,5.40
2023-08-29T04:40:29.987Z,6.65
2023-08-29T04:43:02.159Z,6.60
2023-08-29T04:45:31.779Z,6.80
2023-08-29T04:48:01.392Z,7.13
2023-08-29T04:50:31.579Z,7.80
2023-08-29T04:53:01.156Z,9.20
2023-08-29T04:55:30.805Z,7.00
2023-08-29T04:58:03.557Z,10.10
2023-08-29T05:00:33.446Z,10.10
2023-08-29T05:03:05.550Z,7.85
2023-08-29T05:05:35.296Z,8.48
2023-08-29T05:08:05.602Z,7.43
2023-08-29T05:10:35.505Z,7.00
2023-08-29T05:13:07.974Z,7.70
2023-08-29T05:15:37.591Z,6.43
2023-08-29T05:18:08.160Z,6.57
2023-08-29T05:20:37.930Z,6.40
2023-08-29T05:23:07.927Z,5.90
2023-08-29T05:25:37.553Z,7.10
2023-08-29T05:28:09.870Z,6.30
2023-08-29T05:30:39.496Z,7.15
2023-08-29T05:33:09.069Z,7.20
2023-08-29T05:35:38.630Z,5.90
2023-08-29T05:38:08.620Z,6.20
2023-08-29T05:40:38.327Z,6.82
2023-08-29T05:43:10.557Z,6.28
2023-08-29T05:45:40.124Z,6.50
2023-08-29T05:48:10.194Z,7.10
2023-08-29T05:50:42.728Z,8.00
2023-08-29T05:53:12.335Z,8.30
2023-08-29T05:55:41.949Z,8.00
2023-08-29T05:58:14.070Z,8.20
2023-08-29T06:00:43.749Z,8.15
2023-08-29T06:03:13.434Z,8.00
2023-08-29T06:05:43.556Z,7.80
2023-08-29T06:08:19.686Z,7.63
2023-08-29T06:10:50.170Z,8.63
2023-08-29T06:13:22.375Z,8.90
2023-08-29T06:15:51.925Z,9.07
2023-08-29T06:18:21.514Z,8.95
2023-08-29T06:20:51.212Z,8.88
2023-08-29T06:23:20.736Z,7.93
2023-08-29T06:25:50.472Z,8.80
2023-08-29T06:28:22.602Z,9.00
2023-08-29T06:30:52.271Z,9.00
2023-08-29T06:33:21.838Z,9.38
2023-08-29T06:35:51.401Z,8.50
2023-08-29T06:38:20.969Z,8.57
2023-08-29T06:40:57.503Z,9.23
2023-08-29T06:43:30.546Z,9.30
2023-08-29T06:46:00.265Z,9.00
2023-08-29T06:48:29.963Z,8.80
2023-08-29T06:50:59.545Z,8.40
2023-08-29T06:53:29.069Z,11.07
2023-08-29T06:55:58.704Z,24.40
2023-08-29T06:58:30.861Z,14.90
2023-08-29T07:01:00.524Z,11.27
2023-08-29T07:03:30.236Z,8.02
2023-08-29T07:06:00.688Z,7.20
2023-08-29T07:08:30.206Z,7.93
2023-08-29T07:10:59.813Z,7.05
2023-08-29T07:13:31.911Z,8.45
2023-08-29T07:16:01.497Z,7.68
2023-08-29T07:18:31.158Z,7.88
2023-08-29T07:21:01.256Z,7.70
2023-08-29T07:23:31.233Z,7.70
2023-08-29T07:26:01.598Z,7.55
2023-08-29T07:28:33.770Z,10.30
2023-08-29T07:31:03.479Z,8.00
2023-08-29T07:33:33.640Z,9.18
2023-08-29T07:36:03.729Z,7.85
2023-08-29T07:38:33.390Z,8.48
2023-08-29T07:41:03.232Z,7.28
2023-08-29T07:43:35.396Z,6.90
2023-08-29T07:46:05.067Z,6.45
2023-08-29T07:48:35.431Z,6.75
2023-08-29T07:51:05.034Z,6.93
2023-08-29T07:53:34.566Z,11.35
2023-08-29T07:56:04.504Z,7.68
2023-08-29T07:58:36.689Z,6.88
2023-08-29T08:01:06.378Z,5.75
2023-08-29T08:03:36.048Z,5.78
2023-08-29T08:06:05.639Z,6.30
2023-08-29T08:08:35.187Z,6.00
2023-08-29T08:11:06.226Z,7.30
2023-08-29T08:13:38.854Z,5.90
2023-08-29T08:16:08.443Z,4.95
2023-08-29T08:18:38.011Z,4.95
2023-08-29T08:21:07.625Z,5.13
2023-08-29T08:23:37.169Z,4.88
2023-08-29T08:26:06.720Z,4.60
2023-08-29T08:28:38.816Z,5.07
2023-08-29T08:31:08.804Z,5.50
2023-08-29T08:33:38.368Z,4.85
2023-08-29T08:36:08.297Z,6.05
2023-08-29T08:38:38.036Z,5.30
2023-08-29T08:41:08.040Z,5.20
2023-08-29T08:43:42.438Z,7.13
2023-08-29T08:46:12.124Z,6.10
2023-08-29T08:48:42.046Z,22.40
2023-08-29T08:51:13.177Z,7.57
2023-08-29T08:53:44.275Z,6.33
2023-08-29T08:56:13.909Z,9.02
2023-08-29T08:58:46.128Z,10.18
2023-08-29T09:01:16.365Z,9.80
2023-08-29T09:03:46.511Z,6.53
2023-08-29T09:06:18.781Z,6.70
2023-08-29T09:08:48.417Z,6.90
2023-08-29T09:11:21.366Z,5.10
2023-08-29T09:13:53.732Z,6.20
2023-08-29T09:16:24.901Z,5.90
2023-08-29T09:18:54.795Z,5.20
2023-08-29T09:21:25.221Z,5.10
2023-08-29T09:23:58.186Z,6.10
2023-08-29T09:26:33.945Z,6.40
2023-08-29T09:29:19.605Z,6.90
2023-08-29T09:31:49.724Z,5.40
2023-08-29T09:34:30.299Z,5.35
2023-08-29T09:37:01.005Z,7.07
2023-08-29T09:39:30.971Z,6.25
2023-08-29T09:42:04.979Z,5.50
2023-08-29T09:44:39.866Z,6.80
2023-08-29T09:47:10.052Z,6.22
2023-08-29T09:49:45.251Z,4.90
2023-08-29T09:52:14.991Z,5.10
2023-08-29T09:54:48.104Z,4.80
2023-08-29T09:57:19.588Z,4.23
2023-08-29T09:59:52.834Z,4.25
2023-08-29T10:02:22.624Z,3.40
2023-08-29T10:04:57.374Z,3.05
2023-08-29T10:07:28.938Z,3.72
2023-08-29T10:09:59.171Z,2.88
2023-08-29T10:12:30.560Z,2.83
2023-08-29T10:15:05.400Z,14.50
2023-08-29T10:17:35.913Z,2.40
2023-08-29T10:20:11.165Z,1.80
2023-08-29T10:22:41.482Z,2.00
2023-08-29T10:25:11.957Z,2.00
2023-08-29T10:27:41.695Z,2.00
2023-08-29T10:30:15.986Z,1.77
2023-08-29T10:32:47.548Z,1.80
2023-08-29T10:35:24.089Z,1.63
2023-08-29T10:37:54.811Z,1.70
2023-08-29T10:40:24.786Z,2.50
2023-08-29T10:42:55.973Z,4.03
2023-08-29T10:45:52.038Z,1.13
2023-08-29T10:48:22.440Z,1.27
2023-08-29T10:51:12.943Z,1.50
2023-08-29T10:53:44.383Z,1.40
2023-08-29T10:56:14.392Z,4.20
2023-08-29T10:58:45.826Z,2.92
2023-08-29T11:01:35.474Z,9.50
2023-08-29T11:04:07.438Z,5.95
2023-08-29T11:06:55.264Z,3.10
2023-08-29T11:09:26.298Z,7.28
2023-08-29T11:12:14.072Z,7.57
2023-08-29T11:14:54.197Z,1.65
2023-08-29T11:17:29.511Z,4.70
2023-08-29T11:20:00.213Z,1.50
2023-08-29T11:22:31.050Z,5.35
2023-08-29T11:25:01.657Z,3.60
2023-08-29T11:27:32.635Z,3.22
2023-08-29T11:30:22.214Z,3.70
2023-08-29T11:32:56.621Z,3.58
2023-08-29T11:35:26.179Z,4.50
2023-08-29T11:37:55.763Z,2.80
2023-08-29T11:40:37.975Z,3.30
2023-08-29T11:43:52.530Z,1.60
2023-08-29T11:46:06.895Z,1.30
2023-08-29T11:48:39.153Z,1.88
2023-08-29T11:51:09.877Z,1.60
2023-08-29T11:53:40.593Z,4.35
2023-08-29T11:56:13.705Z,2.00
2023-08-29T11:58:43.365Z,1.45
2023-08-29T12:01:13.011Z,1.50
2023-08-29T12:03:45.256Z,4.43
2023-08-29T12:06:15.755Z,4.60
2023-08-29T12:08:46.305Z,1.40
2023-08-29T12:11:17.992Z,1.50
2023-08-29T12:14:02.496Z,1.40
2023-08-29T12:16:32.654Z,1.20
2023-08-29T12:19:15.246Z,1.30
2023-08-29T12:21:44.818Z,2.20
2023-08-29T12:24:15.679Z,2.63
2023-08-29T12:26:45.223Z,4.75
2023-08-29T12:29:14.727Z,5.90
2023-08-29T12:31:44.423Z,2.40
2023-08-29T12:34:16.558Z,2.05
2023-08-29T12:36:46.131Z,1.90
2023-08-29T12:39:17.381Z,1.73
2023-08-29T12:41:47.030Z,1.20
2023-08-29T12:44:16.637Z,1.58
2023-08-29T12:46:46.293Z,1.10
2023-08-29T12:49:18.930Z,2.00
2023-08-29T12:51:48.553Z,1.60
2023-08-29T12:54:18.142Z,1.10
2023-08-29T12:56:47.900Z,1.95
2023-08-29T12:59:17.429Z,1.30
2023-08-29T13:01:47.025Z,1.45
2023-08-29T13:04:19.228Z,1.40
2023-08-29T13:06:48.793Z,1.20
2023-08-29T13:09:34.724Z,1.02
2023-08-29T13:12:06.233Z,0.90
2023-08-29T13:14:38.766Z,1.20
2023-08-29T13:17:12.014Z,1.10
2023-08-29T13:19:45.843Z,0.90
2023-08-29T13:22:15.396Z,1.27
2023-08-29T13:24:44.987Z,1.23
2023-08-29T13:27:14.534Z,0.93
2023-08-29T13:29:44.100Z,1.00
2023-08-29T13:32:13.645Z,1.10
2023-08-29T13:34:45.768Z,1.30
2023-08-29T13:37:15.384Z,3.13
2023-08-29T13:39:47.523Z,2.78
2023-08-29T13:42:18.661Z,6.95
2023-08-29T13:44:48.223Z,3.40
2023-08-29T13:47:17.824Z,1.50
2023-08-29T13:49:50.054Z,2.63
2023-08-29T13:52:19.690Z,2.70
2023-08-29T13:54:49.437Z,1.60
2023-08-29T13:57:19.076Z,2.70
2023-08-29T13:59:48.588Z,0.90
2023-08-29T14:02:18.881Z,2.65
2023-08-29T14:04:51.118Z,2.25
2023-08-29T14:07:21.936Z,1.75
2023-08-29T14:09:51.578Z,2.57
2023-08-29T14:12:21.190Z,1.70
2023-08-29T14:14:51.757Z,1.20
2023-08-29T14:17:21.867Z,1.20
2023-08-29T14:19:54.040Z,2.70
2023-08-29T14:22:23.563Z,1.77
2023-08-29T14:24:53.122Z,1.65
2023-08-29T14:27:22.740Z,3.15
2023-08-29T14:29:52.339Z,1.30
2023-08-29T14:32:22.474Z,2.63
2023-08-29T14:34:54.665Z,2.17
2023-08-29T14:37:24.254Z,1.30
2023-08-29T14:39:53.848Z,1.15
2023-08-29T14:42:23.383Z,1.48
2023-08-29T14:44:52.941Z,0.90
2023-08-29T14:47:22.515Z,1.23
2023-08-29T14:49:55.226Z,1.00
2023-08-29T14:52:26.752Z,1.40
2023-08-29T14:54:56.623Z,1.70
2023-08-29T14:57:26.155Z,3.45
2023-08-29T14:59:55.759Z,2.83
2023-08-29T15:02:25.682Z,2.65
2023-08-29T15:04:57.837Z,1.63
2023-08-29T15:07:27.490Z,2.30
2023-08-29T15:09:57.101Z,1.00
2023-08-29T15:12:26.658Z,1.77
2023-08-29T15:14:56.243Z,1.90
2023-08-29T15:17:26.571Z,1.10
2023-08-29T15:19:58.949Z,2.28
2023-08-29T15:22:29.721Z,1.67
2023-08-29T15:24:59.329Z,1.58
2023-08-29T15:27:28.881Z,1.70
2023-08-29T15:29:58.537Z,1.10
2023-08-29T15:32:28.367Z,1.40
2023-08-29T15:35:06.512Z,2.10
2023-08-29T15:37:36.146Z,1.20
2023-08-29T15:40:06.002Z,2.33
2023-08-29T15:42:35.524Z,2.00
2023-08-29T15:45:05.367Z,2.42
2023-08-29T15:47:34.927Z,2.60
2023-08-29T15:50:07.563Z,1.25
2023-08-29T15:52:37.136Z,2.63
2023-08-29T15:55:07.526Z,1.60
2023-08-29T15:57:37.088Z,2.60
2023-08-29T16:00:13.814Z,1.20
2023-08-29T16:02:43.453Z,1.20
2023-08-29T16:05:16.320Z,7.78
2023-08-29T16:07:47.613Z,4.60
2023-08-29T16:10:17.226Z,1.50
2023-08-29T16:12:47.526Z,5.20
2023-08-29T16:15:17.789Z,3.42
2023-08-29T16:17:48.537Z,1.50
2023-08-29T16:20:22.034Z,1.75
2023-08-29T16:22:51.602Z,1.33
2023-08-29T16:25:21.373Z,2.30
2023-08-29T16:27:50.927Z,1.10
2023-08-29T16:30:20.508Z,2.30
2023-08-29T16:32:50.118Z,2.60
2023-08-29T16:35:22.300Z,1.50
2023-08-29T16:37:51.853Z,2.80
2023-08-29T16:40:21.750Z,4.47
2023-08-29T16:42:51.424Z,1.27
2023-08-29T16:47:14.246Z,3.50
2023-08-29T16:49:42.796Z,4.75
2023-08-29T16:52:11.441Z,2.80
2023-08-29T16:54:39.695Z,1.50
2023-08-29T16:57:07.985Z,4.53
2023-08-29T16:59:54.620Z,2.73
2023-08-29T17:02:25.124Z,3.35
2023-08-29T17:04:55.032Z,1.77
2023-08-29T17:07:24.856Z,1.70
2023-08-29T17:09:55.560Z,3.67
2023-08-29T17:12:26.150Z,2.10
2023-08-29T17:14:56.108Z,3.20
2023-08-29T17:17:28.243Z,2.05
2023-08-29T17:19:57.910Z,1.40
2023-08-29T17:22:28.009Z,1.60
2023-08-29T17:24:57.847Z,1.60
2023-08-29T17:27:28.487Z,1.70
2023-08-29T17:29:58.655Z,2.57
2023-08-29T17:32:30.958Z,3.72
2023-08-29T17:35:00.967Z,3.03
2023-08-29T17:37:30.806Z,2.25
2023-08-29T17:40:01.834Z,2.00
2023-08-29T17:42:31.799Z,1.80
2023-08-29T17:45:02.028Z,2.60
2023-08-29T17:47:36.408Z,2.90
2023-08-29T17:50:06.355Z,2.90
2023-08-29T17:52:36.004Z,1.90
2023-08-29T17:55:05.976Z,3.03
2023-08-29T17:57:38.795Z,2.17
2023-08-29T18:00:11.440Z,2.50
2023-08-29T18:02:44.050Z,1.60
2023-08-29T18:05:13.914Z,1.70
2023-08-29T18:07:43.506Z,2.95
2023-08-29T18:10:14.491Z,1.50
2023-08-29T18:12:44.705Z,1.50
2023-08-29T18:15:14.537Z,2.65
2023-08-29T18:17:46.770Z,1.40
2023-08-29T18:20:16.503Z,2.10
2023-08-29T18:22:46.102Z,4.70
2023-08-29T18:25:15.777Z,3.03
2023-08-29T18:27:45.336Z,4.07
2023-08-29T18:30:15.900Z,2.70
2023-08-29T18:32:49.928Z,3.70
2023-08-29T18:35:19.850Z,2.73
2023-08-29T18:37:49.421Z,2.10
2023-08-29T18:40:21.234Z,1.70
2023-08-29T18:42:53.895Z,1.37
2023-08-29T18:45:23.516Z,1.50
2023-08-29T18:47:57.405Z,1.50
2023-08-29T18:50:28.221Z,1.60
2023-08-29T18:52:58.102Z,1.50
2023-08-29T18:55:30.681Z,1.40
2023-08-29T18:58:01.604Z,1.70
2023-08-29T19:00:34.610Z,1.70
2023-08-29T19:03:08.527Z,1.80
2023-08-29T19:05:38.209Z,1.80
2023-08-29T19:08:09.062Z,1.85
2023-08-29T19:10:45.242Z,2.40
2023-08-29T19:13:15.160Z,1.90
2023-08-29T19:15:44.708Z,2.30
2023-08-29T19:18:17.319Z,3.20
2023-08-29T19:20:47.440Z,3.40
2023-08-29T19:23:17.727Z,3.95
2023-08-29T19:25:47.313Z,10.48
2023-08-29T19:28:17.159Z,6.53
2023-08-29T19:30:46.780Z,5.13
2023-08-29T19:33:18.955Z,3.95
2023-08-29T19:35:48.593Z,3.77
2023-08-29T19:38:18.378Z,3.67
2023-08-29T19:40:47.919Z,2.90
2023-08-29T19:43:17.811Z,3.00
2023-08-29T19:45:47.371Z,3.10
2023-08-29T19:48:22.087Z,2.70
2023-08-29T19:50:54.166Z,2.70
2023-08-29T19:53:24.039Z,2.85
2023-08-29T19:55:54.918Z,3.50
2023-08-29T19:58:25.345Z,3.50
2023-08-29T20:00:55.276Z,3.00
2023-08-29T20:03:27.640Z,2.30
2023-08-29T20:05:57.245Z,2.70
2023-08-29T20:08:26.937Z,2.90
2023-08-29T20:10:56.822Z,2.80
2023-08-29T20:13:26.489Z,2.80
2023-08-29T20:15:56.021Z,3.00
2023-08-29T20:18:28.154Z,3.90
2023-08-29T20:20:57.669Z,4.00
2023-08-29T20:23:27.285Z,3.70
2023-08-29T20:25:57.891Z,3.20
2023-08-29T20:28:27.421Z,3.10
2023-08-29T20:30:59.871Z,3.13
2023-08-29T20:33:32.822Z,3.03
2023-08-29T20:36:02.394Z,3.20
2023-08-29T20:38:31.988Z,2.80
2023-08-29T20:41:01.514Z,2.60
2023-08-29T20:43:31.545Z,3.20
2023-08-29T20:46:01.124Z,3.57
2023-08-29T20:48:33.409Z,3.47
2023-08-29T20:51:04.601Z,2.67
2023-08-29T20:53:35.537Z,3.10
2023-08-29T20:56:05.295Z,2.87
2023-08-29T20:58:34.839Z,2.75
2023-08-29T21:01:05.904Z,2.60
2023-08-29T21:03:38.106Z,2.70
2023-08-29T21:06:07.776Z,2.80
2023-08-29T21:08:37.340Z,2.80
2023-08-29T21:11:06.904Z,3.10
2023-08-29T21:13:36.464Z,3.00
2023-08-29T21:16:06.468Z,3.50
2023-08-29T21:18:38.635Z,3.20
2023-08-29T21:21:08.857Z,2.90
2023-08-29T21:23:38.481Z,5.40
2023-08-29T21:26:08.319Z,7.50
2023-08-29T21:28:37.854Z,2.95
2023-08-29T21:31:09.046Z,3.60
2023-08-29T21:33:43.483Z,2.80
2023-08-29T21:36:13.079Z,2.80
2023-08-29T21:38:46.813Z,3.10
2023-08-29T21:41:17.641Z,3.13
2023-08-29T21:43:47.233Z,2.90
2023-08-29T21:46:16.859Z,3.20
2023-08-29T21:48:49.031Z,4.80
2023-08-29T21:51:22.163Z,8.10
2023-08-29T21:53:51.776Z,3.50
2023-08-29T21:56:22.148Z,3.50
2023-08-29T21:58:51.698Z,3.70
2023-08-29T22:01:21.568Z,3.60
2023-08-29T22:03:53.845Z,3.60
2023-08-29T22:06:23.402Z,4.30
2023-08-29T22:08:52.967Z,4.03
2023-08-29T22:11:22.692Z,4.85
2023-08-29T22:13:52.400Z,4.30
2023-08-29T22:16:22.056Z,4.10
2023-08-29T22:18:54.247Z,4.38
2023-08-29T22:21:23.802Z,4.20
2023-08-29T22:23:53.374Z,4.00
2023-08-29T22:26:22.946Z,4.05
2023-08-29T22:28:52.470Z,3.60
2023-08-29T22:31:22.096Z,4.10
2023-08-29T22:33:54.275Z,3.80
2023-08-29T22:36:23.819Z,4.00
2023-08-29T22:38:53.982Z,4.07
2023-08-29T22:41:34.127Z,4.00
2023-08-29T22:44:08.182Z,3.65
2023-08-29T22:46:37.783Z,4.00
2023-08-29T22:49:09.934Z,3.90
2023-08-29T22:51:39.497Z,5.28
2023-08-29T22:54:09.388Z,8.47
2023-08-29T22:56:38.893Z,7.10
2023-08-29T22:59:08.706Z,7.30
2023-08-29T23:01:38.453Z,5.47
2023-08-29T23:04:10.789Z,6.37
2023-08-29T23:06:42.760Z,7.55
2023-08-29T23:09:13.028Z,7.40
2023-08-29T23:11:43.792Z,5.15
2023-08-29T23:14:24.359Z,5.30
2023-08-29T23:16:54.331Z,7.10
2023-08-29T23:19:27.379Z,5.15
2023-08-29T23:21:57.167Z,4.65
2023-08-29T23:24:26.694Z,4.43
2023-08-29T23:26:56.294Z,5.20
2023-08-29T23:29:26.879Z,5.88
2023-08-29T23:31:56.472Z,5.10
2023-08-29T23:34:29.445Z,4.80
2023-08-29T23:36:59.009Z,6.97
2023-08-29T23:39:28.613Z,5.70
2023-08-29T23:42:00.565Z,6.32
2023-08-29T23:44:30.301Z,6.05
2023-08-29T23:46:59.996Z,6.80
2023-08-29T23:49:32.137Z,6.03
2023-08-29T23:52:01.759Z,6.38
2023-08-29T23:54:31.303Z,6.43
2023-08-29T23:57:00.912Z,5.38
2023-08-29T23:59:30.478Z,5.20
